Time;durP1;ratioP1;P1;durP2;ratioP2;P2;SDS_P1;SDS_P2;PMS_P1;PMS_P2;Temp;Humidity;BMP_temperature;BMP_pressure;BME280_temperature;BME280_humidity;BME280_pressure;Samples;Min_cycle;Max_cycle;Signal;HPM_P1;HPM_P2
2021/12/06 00:00:27;;;;;;;;;;;22.10;34.00;;;;;;478640;248;2351;-46
2021/12/06 00:02:29;;;;;;;;;;;22.10;34.00;;;;;;478332;249;1220;-45
2021/12/06 00:04:30;;;;;;;;;;;22.10;34.00;;;;;;478595;248;2195;-46
2021/12/06 00:06:33;;;;;;;;;;;22.10;33.90;;;;;;478696;249;1399;-46
2021/12/06 00:08:33;;;;;;;;;;;22.20;34.00;;;;;;478344;248;2397;-46
2021/12/06 00:10:34;;;;;;;;;;;22.20;34.00;;;;;;478489;248;1306;-46
2021/12/06 00:12:35;;;;;;;;;;;22.20;33.90;;;;;;478305;249;1066;-45
2021/12/06 00:14:38;;;;;;;;;;;22.20;34.00;;;;;;478555;248;1093;-46
2021/12/06 00:16:38;;;;;;;;;;;22.20;33.90;;;;;;478427;249;2218;-46
2021/12/06 00:18:39;;;;;;;;;;;22.20;33.90;;;;;;478600;249;1043;-46
2021/12/06 00:20:41;;;;;;;;;;;22.20;33.90;;;;;;478711;249;1332;-46
2021/12/06 00:22:42;;;;;;;;;;;22.20;33.90;;;;;;478516;249;1193;-46
2021/12/06 00:24:43;;;;;;;;;;;22.20;33.90;;;;;;478539;249;2115;-46
2021/12/06 00:26:44;;;;;;;;;;;22.30;33.90;;;;;;478568;248;1222;-46
2021/12/06 00:28:46;;;;;;;;;;;22.20;33.90;;;;;;478434;249;1324;-46
2021/12/06 00:30:47;;;;;;;;;;;22.20;33.90;;;;;;478613;248;1269;-46
2021/12/06 00:32:48;;;;;;;;;;;22.20;33.90;;;;;;478767;249;1192;-46
2021/12/06 00:34:50;;;;;;;;;;;22.20;33.90;;;;;;478675;249;1228;-46
2021/12/06 00:36:54;;;;;;;;;;;22.20;33.80;;;;;;478379;249;1586;-46
2021/12/06 00:38:53;;;;;;;;;;;22.30;33.90;;;;;;478233;248;2207;-46
2021/12/06 00:40:55;;;;;;;;;;;22.30;33.90;;;;;;478710;249;1266;-46
2021/12/06 00:42:56;;;;;;;;;;;22.30;33.90;;;;;;478394;249;1289;-46
2021/12/06 00:44:57;;;;;;;;;;;22.30;33.90;;;;;;478413;249;2202;-46
2021/12/06 00:46:59;;;;;;;;;;;22.30;33.90;;;;;;478611;249;1251;-46
2021/12/06 00:49:00;;;;;;;;;;;22.30;33.80;;;;;;478620;249;1069;-46
2021/12/06 00:51:01;;;;;;;;;;;22.30;33.80;;;;;;478503;249;1060;-46
2021/12/06 00:53:03;;;;;;;;;;;22.30;33.80;;;;;;478785;249;1146;-46
2021/12/06 00:55:04;;;;;;;;;;;22.40;33.80;;;;;;478459;249;1222;-46
2021/12/06 00:57:05;;;;;;;;;;;22.40;33.80;;;;;;478464;249;1059;-46
2021/12/06 00:59:07;;;;;;;;;;;22.30;33.80;;;;;;478355;249;1147;-46
2021/12/06 01:01:08;;;;;;;;;;;22.30;33.80;;;;;;478666;249;1126;-46
2021/12/06 01:03:09;;;;;;;;;;;22.40;33.80;;;;;;478621;249;1127;-46
2021/12/06 01:05:11;;;;;;;;;;;22.30;33.80;;;;;;478715;248;2120;-46
2021/12/06 01:07:12;;;;;;;;;;;22.40;33.80;;;;;;478695;249;1111;-46
2021/12/06 01:09:13;;;;;;;;;;;22.40;33.80;;;;;;478332;249;1289;-46
2021/12/06 01:11:15;;;;;;;;;;;22.40;33.80;;;;;;478836;248;1277;-46
2021/12/06 01:13:16;;;;;;;;;;;22.40;33.80;;;;;;478802;249;1023;-46
2021/12/06 01:15:17;;;;;;;;;;;22.40;33.80;;;;;;478791;249;1195;-46
2021/12/06 01:17:19;;;;;;;;;;;22.40;33.80;;;;;;478404;249;1222;-46
2021/12/06 01:19:20;;;;;;;;;;;22.40;33.80;;;;;;478347;249;986;-46
2021/12/06 01:21:27;;;;;;;;;;;22.40;33.80;;;;;;478540;249;1458;-46
2021/12/06 01:23:28;;;;;;;;;;;22.40;33.80;;;;;;478209;248;2277;-46
2021/12/06 01:25:32;;;;;;;;;;;22.40;33.70;;;;;;478070;249;2269;-46
2021/12/06 01:30:17;;;;;;;;;;;22.40;33.70;;;;;;477333;249;1544;-46
2021/12/06 01:32:14;;;;;;;;;;;22.40;33.70;;;;;;477755;248;2192;-46
2021/12/06 01:39:09;;;;;;;;;;;22.40;33.70;;;;;;478151;248;1905;-46
2021/12/06 01:40:51;;;;;;;;;;;22.40;33.70;;;;;;478330;248;1998;-46
2021/12/06 01:42:52;;;;;;;;;;;22.40;33.70;;;;;;478714;249;1062;-46
2021/12/06 01:44:53;;;;;;;;;;;22.40;33.70;;;;;;478613;248;2135;-46
2021/12/06 01:46:55;;;;;;;;;;;22.50;33.70;;;;;;478481;248;1278;-46
2021/12/06 01:48:56;;;;;;;;;;;22.50;33.70;;;;;;478369;249;1034;-46
2021/12/06 01:50:57;;;;;;;;;;;22.50;33.70;;;;;;478458;249;1179;-46
2021/12/06 01:52:59;;;;;;;;;;;22.50;33.60;;;;;;478211;249;1612;-46
2021/12/06 01:55:00;;;;;;;;;;;22.50;33.70;;;;;;478339;248;1254;-46
2021/12/06 01:57:01;;;;;;;;;;;22.50;33.70;;;;;;478376;249;1207;-46
2021/12/06 01:59:03;;;;;;;;;;;22.50;33.70;;;;;;478651;249;1125;-46
2021/12/06 02:01:04;;;;;;;;;;;22.50;33.70;;;;;;478725;249;1227;-46
2021/12/06 02:03:05;;;;;;;;;;;22.50;33.60;;;;;;478688;248;1197;-46
2021/12/06 02:05:07;;;;;;;;;;;22.50;33.60;;;;;;478757;249;2123;-46
2021/12/06 02:07:08;;;;;;;;;;;22.50;33.60;;;;;;478485;248;1553;-46
2021/12/06 02:09:09;;;;;;;;;;;22.50;33.70;;;;;;478624;249;1046;-46
2021/12/06 02:11:11;;;;;;;;;;;22.50;33.70;;;;;;478376;249;1196;-46
2021/12/06 02:13:12;;;;;;;;;;;22.50;33.60;;;;;;478672;249;1081;-46
2021/12/06 02:15:27;;;;;;;;;;;22.50;33.60;;;;;;478712;248;1096;-46
2021/12/06 02:17:19;;;;;;;;;;;22.50;33.60;;;;;;477486;249;2341;-46
2021/12/06 02:19:19;;;;;;;;;;;22.60;33.60;;;;;;478072;249;2305;-46
2021/12/06 02:21:18;;;;;;;;;;;22.60;33.60;;;;;;478120;249;1860;-46
2021/12/06 02:23:19;;;;;;;;;;;22.50;33.60;;;;;;478338;249;1545;-46
2021/12/06 02:25:20;;;;;;;;;;;22.60;33.60;;;;;;478331;249;2121;-46
2021/12/06 02:27:22;;;;;;;;;;;22.60;33.60;;;;;;478250;249;1237;-46
2021/12/06 02:29:23;;;;;;;;;;;22.50;33.60;;;;;;478773;249;1089;-46
2021/12/06 02:31:24;;;;;;;;;;;22.60;33.60;;;;;;478650;249;1156;-46
2021/12/06 02:33:26;;;;;;;;;;;22.60;33.60;;;;;;478325;249;1077;-46
2021/12/06 02:35:27;;;;;;;;;;;22.60;33.60;;;;;;478362;249;1381;-46
2021/12/06 02:37:29;;;;;;;;;;;22.60;33.60;;;;;;478408;249;1178;-46
2021/12/06 02:39:30;;;;;;;;;;;22.60;33.60;;;;;;478743;249;2354;-46
2021/12/06 02:41:33;;;;;;;;;;;22.60;33.60;;;;;;478220;249;2384;-46
2021/12/06 02:43:34;;;;;;;;;;;22.60;33.60;;;;;;478404;248;2310;-46
2021/12/06 02:45:35;;;;;;;;;;;22.60;33.50;;;;;;478582;249;2108;-46
2021/12/06 02:47:36;;;;;;;;;;;22.60;33.60;;;;;;478297;249;1237;-46
2021/12/06 02:49:38;;;;;;;;;;;22.60;33.60;;;;;;478738;249;1046;-46
2021/12/06 02:51:39;;;;;;;;;;;22.60;33.60;;;;;;478484;249;1097;-46
2021/12/06 02:53:40;;;;;;;;;;;22.60;33.60;;;;;;478401;249;1045;-46
2021/12/06 02:55:43;;;;;;;;;;;22.60;33.60;;;;;;478606;249;1321;-46
2021/12/06 02:57:46;;;;;;;;;;;22.60;33.60;;;;;;478264;249;2570;-46
2021/12/06 02:59:44;;;;;;;;;;;22.60;33.50;;;;;;478670;248;2300;-46
2021/12/06 03:01:45;;;;;;;;;;;22.60;33.50;;;;;;478321;249;1062;-46
2021/12/06 03:03:47;;;;;;;;;;;22.60;33.50;;;;;;478785;249;1098;-46
2021/12/06 03:05:50;;;;;;;;;;;22.60;33.60;;;;;;478825;248;2143;-46
2021/12/06 03:07:56;;;;;;;;;;;22.60;33.50;;;;;;478280;249;2355;-46
2021/12/06 03:09:54;;;;;;;;;;;22.60;33.50;;;;;;478458;248;2431;-46
2021/12/06 03:11:53;;;;;;;;;;;22.60;33.50;;;;;;478223;248;2428;-46
2021/12/06 03:13:54;;;;;;;;;;;22.60;33.50;;;;;;478789;249;1092;-46
2021/12/06 03:15:55;;;;;;;;;;;22.60;33.50;;;;;;478325;249;1079;-46
2021/12/06 03:17:57;;;;;;;;;;;22.60;33.50;;;;;;478370;248;1220;-46
2021/12/06 03:19:58;;;;;;;;;;;22.70;33.50;;;;;;478796;248;1083;-46
2021/12/06 03:21:59;;;;;;;;;;;22.60;33.50;;;;;;478320;249;1204;-46
2021/12/06 03:24:01;;;;;;;;;;;22.60;33.50;;;;;;478798;249;1626;-46
2021/12/06 03:26:02;;;;;;;;;;;22.70;33.50;;;;;;478255;249;2190;-46
2021/12/06 03:28:03;;;;;;;;;;;22.70;33.50;;;;;;478245;249;994;-46
2021/12/06 03:30:05;;;;;;;;;;;22.70;33.50;;;;;;478738;249;1049;-46
2021/12/06 03:32:06;;;;;;;;;;;22.70;33.50;;;;;;478299;249;1305;-46
2021/12/06 03:34:07;;;;;;;;;;;22.70;33.50;;;;;;478573;248;1024;-46
2021/12/06 03:36:09;;;;;;;;;;;22.70;33.50;;;;;;478407;249;1475;-46
2021/12/06 03:38:10;;;;;;;;;;;22.70;33.50;;;;;;478738;249;1134;-46
2021/12/06 03:40:11;;;;;;;;;;;22.70;33.50;;;;;;478433;249;1044;-46
2021/12/06 03:42:12;;;;;;;;;;;22.70;33.50;;;;;;478203;249;1255;-46
2021/12/06 03:44:14;;;;;;;;;;;22.70;33.50;;;;;;478349;248;2131;-46
2021/12/06 03:46:15;;;;;;;;;;;22.70;33.50;;;;;;478570;249;1276;-46
2021/12/06 03:48:16;;;;;;;;;;;22.70;33.50;;;;;;478423;249;1191;-46
2021/12/06 03:50:18;;;;;;;;;;;22.70;33.50;;;;;;478748;249;1060;-45
2021/12/06 03:52:19;;;;;;;;;;;22.60;33.50;;;;;;478231;249;1210;-46
2021/12/06 03:54:20;;;;;;;;;;;22.60;33.60;;;;;;478329;249;1061;-46
2021/12/06 03:56:22;;;;;;;;;;;22.40;33.90;;;;;;478547;249;1150;-46
2021/12/06 03:58:23;;;;;;;;;;;22.30;34.10;;;;;;478433;249;1039;-46
2021/12/06 04:00:24;;;;;;;;;;;22.10;34.40;;;;;;478577;249;1059;-46
2021/12/06 04:02:26;;;;;;;;;;;21.90;34.70;;;;;;478320;249;1080;-46
2021/12/06 04:04:27;;;;;;;;;;;21.80;35.00;;;;;;478407;249;2124;-46
2021/12/06 04:06:28;;;;;;;;;;;21.70;35.10;;;;;;478317;248;1042;-46
2021/12/06 04:08:29;;;;;;;;;;;21.60;35.20;;;;;;478318;249;1041;-46
2021/12/06 04:10:31;;;;;;;;;;;21.60;35.40;;;;;;478338;249;1056;-46
2021/12/06 04:12:32;;;;;;;;;;;21.50;35.40;;;;;;478431;248;1181;-46
2021/12/06 04:14:33;;;;;;;;;;;21.50;35.50;;;;;;478630;249;1053;-45
2021/12/06 04:16:35;;;;;;;;;;;21.40;35.60;;;;;;478210;249;1260;-46
2021/12/06 04:18:36;;;;;;;;;;;21.40;35.60;;;;;;478305;248;1060;-45
2021/12/06 04:20:37;;;;;;;;;;;21.40;35.70;;;;;;478396;248;1280;-46
2021/12/06 04:22:39;;;;;;;;;;;21.30;35.70;;;;;;478457;249;1066;-46
2021/12/06 04:24:40;;;;;;;;;;;21.30;35.70;;;;;;478353;249;2210;-46
2021/12/06 04:26:41;;;;;;;;;;;21.30;35.80;;;;;;478412;249;1173;-46
2021/12/06 04:28:47;;;;;;;;;;;21.30;35.80;;;;;;478797;249;1084;-46
2021/12/06 04:30:44;;;;;;;;;;;21.30;35.80;;;;;;478028;249;2254;-46
2021/12/06 04:32:45;;;;;;;;;;;21.30;35.90;;;;;;478323;249;1208;-46
2021/12/06 04:34:47;;;;;;;;;;;21.30;35.90;;;;;;478581;249;1063;-46
2021/12/06 04:36:48;;;;;;;;;;;21.20;35.90;;;;;;478456;249;1398;-46
2021/12/06 04:38:49;;;;;;;;;;;21.20;35.90;;;;;;478376;249;1245;-46
2021/12/06 04:40:51;;;;;;;;;;;21.20;35.90;;;;;;478517;249;1472;-46
2021/12/06 04:42:52;;;;;;;;;;;21.20;36.00;;;;;;478316;249;1475;-46
2021/12/06 04:44:53;;;;;;;;;;;21.10;36.00;;;;;;478304;249;2191;-46
2021/12/06 04:46:55;;;;;;;;;;;21.20;36.00;;;;;;478233;249;1199;-46
2021/12/06 04:48:56;;;;;;;;;;;21.10;36.00;;;;;;478315;249;1311;-46
2021/12/06 04:50:57;;;;;;;;;;;21.10;36.10;;;;;;478478;249;1137;-46
2021/12/06 04:52:59;;;;;;;;;;;21.10;36.10;;;;;;478540;248;1135;-46
2021/12/06 04:55:00;;;;;;;;;;;21.10;36.10;;;;;;478606;249;1000;-45
2021/12/06 04:57:01;;;;;;;;;;;21.10;36.10;;;;;;478177;249;1422;-46
2021/12/06 04:59:02;;;;;;;;;;;21.10;36.10;;;;;;478598;248;1060;-46
2021/12/06 05:01:04;;;;;;;;;;;21.00;36.10;;;;;;478555;249;1330;-46
2021/12/06 05:03:05;;;;;;;;;;;21.00;36.20;;;;;;478782;249;1226;-45
2021/12/06 05:05:06;;;;;;;;;;;21.00;36.20;;;;;;478793;249;2202;-46
2021/12/06 05:07:08;;;;;;;;;;;21.00;36.20;;;;;;478365;249;1300;-46
2021/12/06 05:09:09;;;;;;;;;;;20.90;36.20;;;;;;478498;249;1036;-46
2021/12/06 05:11:11;;;;;;;;;;;20.90;36.20;;;;;;478297;248;1168;-46
2021/12/06 05:13:12;;;;;;;;;;;20.90;36.30;;;;;;478365;249;1218;-46
2021/12/06 05:15:13;;;;;;;;;;;21.00;36.30;;;;;;478771;249;1062;-46
2021/12/06 05:17:15;;;;;;;;;;;20.90;36.20;;;;;;478621;249;1300;-46
2021/12/06 05:19:16;;;;;;;;;;;20.90;36.20;;;;;;478735;249;1067;-46
2021/12/06 05:21:17;;;;;;;;;;;20.90;36.30;;;;;;478288;249;1126;-46
2021/12/06 05:23:19;;;;;;;;;;;20.90;36.30;;;;;;478363;248;1067;-46
2021/12/06 05:25:23;;;;;;;;;;;20.90;36.30;;;;;;478774;249;2124;-46
2021/12/06 05:27:27;;;;;;;;;;;20.90;36.20;;;;;;478175;249;2512;-46
2021/12/06 05:29:25;;;;;;;;;;;20.90;36.30;;;;;;478152;248;2458;-46
2021/12/06 05:31:26;;;;;;;;;;;20.90;36.30;;;;;;478182;249;2135;-46
2021/12/06 05:33:30;;;;;;;;;;;20.80;36.40;;;;;;478279;248;2546;-46
2021/12/06 05:35:31;;;;;;;;;;;20.80;36.40;;;;;;478251;248;2183;-46
2021/12/06 05:37:32;;;;;;;;;;;20.80;36.40;;;;;;478726;249;1200;-46
2021/12/06 05:39:33;;;;;;;;;;;20.80;36.40;;;;;;478365;249;1059;-46
2021/12/06 05:41:35;;;;;;;;;;;20.80;36.40;;;;;;478174;249;1150;-46
2021/12/06 05:43:36;;;;;;;;;;;20.90;36.30;;;;;;478305;249;1236;-46
2021/12/06 05:45:37;;;;;;;;;;;20.80;36.30;;;;;;478371;249;2119;-46
2021/12/06 05:47:39;;;;;;;;;;;20.80;36.30;;;;;;478197;249;1196;-46
2021/12/06 05:49:40;;;;;;;;;;;20.80;36.30;;;;;;478221;249;1305;-46
2021/12/06 05:51:42;;;;;;;;;;;20.80;36.40;;;;;;478152;249;1732;-45
2021/12/06 05:53:42;;;;;;;;;;;20.80;36.50;;;;;;478282;249;1159;-46
2021/12/06 05:55:44;;;;;;;;;;;20.80;36.40;;;;;;478193;249;1120;-46
2021/12/06 05:57:45;;;;;;;;;;;20.80;36.40;;;;;;478217;249;1230;-46
2021/12/06 05:59:46;;;;;;;;;;;20.80;36.40;;;;;;478426;249;1108;-46
2021/12/06 06:01:49;;;;;;;;;;;20.80;36.50;;;;;;478212;249;1163;-45
2021/12/06 06:03:49;;;;;;;;;;;20.80;36.40;;;;;;478274;249;2048;-46
2021/12/06 06:05:52;;;;;;;;;;;20.80;36.40;;;;;;478217;249;2116;-45
2021/12/06 06:07:52;;;;;;;;;;;20.70;36.40;;;;;;478244;248;1923;-46
2021/12/06 06:09:53;;;;;;;;;;;20.70;36.40;;;;;;478469;249;1027;-46
2021/12/06 06:11:54;;;;;;;;;;;20.80;36.40;;;;;;478590;249;1239;-46
2021/12/06 06:13:56;;;;;;;;;;;20.80;36.40;;;;;;478163;249;1188;-46
2021/12/06 06:15:57;;;;;;;;;;;20.80;36.40;;;;;;478321;249;1622;-46
2021/12/06 06:17:58;;;;;;;;;;;20.80;36.40;;;;;;478589;249;1040;-46
2021/12/06 06:20:00;;;;;;;;;;;20.80;36.40;;;;;;478509;248;1093;-46
2021/12/06 06:22:01;;;;;;;;;;;20.80;36.40;;;;;;478297;249;1078;-46
2021/12/06 06:24:02;;;;;;;;;;;20.80;36.40;;;;;;478086;249;1192;-46
2021/12/06 06:26:03;;;;;;;;;;;20.80;36.40;;;;;;478054;249;2132;-46
2021/12/06 06:28:05;;;;;;;;;;;20.80;36.40;;;;;;478063;249;1133;-46
2021/12/06 06:30:06;;;;;;;;;;;20.80;36.40;;;;;;478059;249;1084;-46
2021/12/06 06:32:07;;;;;;;;;;;20.70;36.50;;;;;;478013;248;1366;-46
2021/12/06 06:34:09;;;;;;;;;;;20.70;36.50;;;;;;478071;249;1078;-46
2021/12/06 06:36:11;;;;;;;;;;;20.70;36.40;;;;;;478174;249;1449;-46
2021/12/06 06:38:11;;;;;;;;;;;20.80;36.40;;;;;;477878;248;2161;-46
2021/12/06 06:40:13;;;;;;;;;;;20.70;36.40;;;;;;477953;249;1393;-46
2021/12/06 06:42:14;;;;;;;;;;;20.80;36.40;;;;;;477963;248;1202;-46
2021/12/06 06:44:17;;;;;;;;;;;20.70;36.30;;;;;;477997;249;1214;-46
2021/12/06 06:46:17;;;;;;;;;;;20.80;36.40;;;;;;477832;249;2187;-45
2021/12/06 06:48:18;;;;;;;;;;;20.70;36.40;;;;;;477910;249;1243;-45
2021/12/06 06:50:20;;;;;;;;;;;20.70;36.50;;;;;;478069;248;1180;-46
2021/12/06 06:52:21;;;;;;;;;;;20.70;36.40;;;;;;477870;249;1176;-46
2021/12/06 06:54:22;;;;;;;;;;;20.70;36.40;;;;;;477960;248;1275;-46
2021/12/06 06:56:24;;;;;;;;;;;20.70;36.40;;;;;;478049;249;1239;-46
2021/12/06 06:58:25;;;;;;;;;;;20.70;36.40;;;;;;478032;249;1202;-46
2021/12/06 07:00:26;;;;;;;;;;;20.70;36.30;;;;;;477957;248;1293;-46
2021/12/06 07:02:28;;;;;;;;;;;20.70;36.40;;;;;;477780;249;1293;-46
2021/12/06 07:04:29;;;;;;;;;;;20.80;36.40;;;;;;477878;249;1243;-46
2021/12/06 07:06:30;;;;;;;;;;;20.70;36.40;;;;;;477959;249;2331;-46
2021/12/06 07:08:32;;;;;;;;;;;20.70;36.30;;;;;;478025;249;1139;-46
2021/12/06 07:10:33;;;;;;;;;;;20.70;36.30;;;;;;478137;249;1230;-46
2021/12/06 07:12:41;;;;;;;;;;;20.80;36.40;;;;;;477877;248;1055;-46
2021/12/06 07:14:36;;;;;;;;;;;20.70;36.40;;;;;;477360;249;2108;-46
2021/12/06 07:16:37;;;;;;;;;;;20.70;36.30;;;;;;478015;249;1223;-46
2021/12/06 07:18:38;;;;;;;;;;;20.70;36.30;;;;;;477929;249;1135;-46
2021/12/06 07:20:40;;;;;;;;;;;20.70;36.40;;;;;;477882;249;1144;-46
2021/12/06 07:22:41;;;;;;;;;;;20.70;36.40;;;;;;477939;249;1148;-45
2021/12/06 07:24:42;;;;;;;;;;;20.70;36.40;;;;;;477918;249;1092;-46
2021/12/06 07:26:44;;;;;;;;;;;20.70;36.40;;;;;;477824;248;2195;-46
2021/12/06 07:28:45;;;;;;;;;;;20.70;36.40;;;;;;477863;248;1180;-46
2021/12/06 07:30:47;;;;;;;;;;;20.70;36.30;;;;;;477764;249;1303;-46
2021/12/06 07:32:48;;;;;;;;;;;20.60;36.30;;;;;;477756;249;1179;-45
2021/12/06 07:34:51;;;;;;;;;;;20.60;36.30;;;;;;477741;249;1046;-46
2021/12/06 07:36:51;;;;;;;;;;;20.70;36.30;;;;;;477894;249;2399;-46
2021/12/06 07:38:52;;;;;;;;;;;20.70;36.20;;;;;;477919;249;1158;-46
2021/12/06 07:40:54;;;;;;;;;;;20.70;36.20;;;;;;477839;249;1523;-45
2021/12/06 07:42:55;;;;;;;;;;;20.70;36.30;;;;;;477862;249;1154;-46
2021/12/06 07:44:56;;;;;;;;;;;20.70;36.30;;;;;;477830;249;1230;-46
2021/12/06 07:46:57;;;;;;;;;;;20.60;36.20;;;;;;477670;249;2206;-45
2021/12/06 07:48:59;;;;;;;;;;;20.70;36.30;;;;;;477845;248;1078;-45
2021/12/06 07:51:00;;;;;;;;;;;20.70;36.30;;;;;;477790;249;1328;-46
2021/12/06 07:53:01;;;;;;;;;;;20.70;36.30;;;;;;477781;249;1201;-45
2021/12/06 07:55:03;;;;;;;;;;;20.60;36.20;;;;;;477975;248;1107;-46
2021/12/06 07:57:04;;;;;;;;;;;20.60;36.20;;;;;;477741;249;1346;-46
2021/12/06 07:59:05;;;;;;;;;;;20.60;36.20;;;;;;477663;249;1163;-46
2021/12/06 08:01:07;;;;;;;;;;;20.60;36.10;;;;;;477832;249;1234;-46
2021/12/06 08:03:08;;;;;;;;;;;20.60;36.10;;;;;;477909;249;1102;-46
2021/12/06 08:07:29;;;;;;;;;;;20.60;36.20;;;;;;477821;248;2120;-46
2021/12/06 08:09:30;;;;;;;;;;;20.60;36.20;;;;;;477891;248;1127;-46
2021/12/06 08:11:31;;;;;;;;;;;20.70;36.10;;;;;;477619;249;1166;-45
2021/12/06 08:13:33;;;;;;;;;;;20.60;36.00;;;;;;477670;249;1253;-46
2021/12/06 08:15:34;;;;;;;;;;;20.60;36.10;;;;;;477614;249;1066;-46
2021/12/06 08:17:35;;;;;;;;;;;20.60;36.00;;;;;;477733;249;1144;-46
2021/12/06 08:19:37;;;;;;;;;;;20.70;36.10;;;;;;477664;249;1099;-46
2021/12/06 08:21:38;;;;;;;;;;;20.60;36.00;;;;;;477609;249;1117;-46
2021/12/06 08:23:39;;;;;;;;;;;20.60;36.00;;;;;;477947;248;1065;-46
2021/12/06 08:25:41;;;;;;;;;;;20.60;36.00;;;;;;477792;249;1105;-46
2021/12/06 08:27:42;;;;;;;;;;;20.60;36.00;;;;;;477591;249;2127;-45
2021/12/06 08:29:43;;;;;;;;;;;20.60;36.10;;;;;;477586;249;1346;-46
2021/12/06 08:31:45;;;;;;;;;;;20.60;36.10;;;;;;477695;249;1123;-46
2021/12/06 08:33:46;;;;;;;;;;;20.60;36.00;;;;;;477779;249;1206;-46
2021/12/06 08:35:48;;;;;;;;;;;20.60;35.90;;;;;;477763;249;1076;-45
2021/12/06 08:37:49;;;;;;;;;;;20.60;36.00;;;;;;477598;248;1177;-45
2021/12/06 08:39:50;;;;;;;;;;;20.60;36.00;;;;;;477481;249;1072;-46
2021/12/06 08:41:51;;;;;;;;;;;20.60;36.00;;;;;;477757;249;1142;-46
2021/12/06 08:43:53;;;;;;;;;;;20.60;36.00;;;;;;477720;249;1308;-46
2021/12/06 08:45:55;;;;;;;;;;;20.60;35.90;;;;;;477981;248;2200;-46
2021/12/06 08:47:56;;;;;;;;;;;20.60;35.90;;;;;;477512;248;1049;-46
2021/12/06 08:49:57;;;;;;;;;;;20.60;36.00;;;;;;477494;249;1055;-46
2021/12/06 08:51:59;;;;;;;;;;;20.60;35.90;;;;;;477424;249;1333;-46
2021/12/06 08:54:00;;;;;;;;;;;20.50;35.90;;;;;;477524;249;1118;-46
2021/12/06 08:56:01;;;;;;;;;;;20.60;35.90;;;;;;477730;249;1215;-46
2021/12/06 08:58:03;;;;;;;;;;;20.60;35.90;;;;;;477943;249;1182;-46
2021/12/06 09:00:04;;;;;;;;;;;20.60;35.90;;;;;;477887;248;1159;-46
2021/12/06 09:02:05;;;;;;;;;;;20.60;35.90;;;;;;477660;249;1316;-45
2021/12/06 09:04:10;;;;;;;;;;;20.60;35.80;;;;;;477769;249;1118;-45
2021/12/06 09:06:09;;;;;;;;;;;20.70;35.80;;;;;;477734;248;2123;-45
2021/12/06 09:08:10;;;;;;;;;;;20.60;35.80;;;;;;477639;249;1091;-46
2021/12/06 09:10:12;;;;;;;;;;;20.60;35.90;;;;;;477658;249;1090;-46
2021/12/06 09:12:13;;;;;;;;;;;20.60;35.90;;;;;;477469;248;1236;-46
2021/12/06 09:14:15;;;;;;;;;;;20.50;35.80;;;;;;477592;249;1326;-45
2021/12/06 09:16:16;;;;;;;;;;;20.60;35.90;;;;;;477536;249;1137;-45
2021/12/06 09:18:17;;;;;;;;;;;20.50;35.90;;;;;;477635;249;1160;-45
2021/12/06 09:20:19;;;;;;;;;;;20.60;35.80;;;;;;477728;249;1487;-46
2021/12/06 09:22:20;;;;;;;;;;;20.60;35.80;;;;;;477719;249;1230;-46
2021/12/06 09:24:21;;;;;;;;;;;20.60;35.80;;;;;;477762;249;1240;-46
2021/12/06 09:26:22;;;;;;;;;;;20.60;35.70;;;;;;477739;248;2144;-46
2021/12/06 09:28:25;;;;;;;;;;;20.60;35.70;;;;;;477585;249;1337;-46
2021/12/06 09:30:26;;;;;;;;;;;20.50;35.70;;;;;;477470;248;2123;-45
2021/12/06 09:32:26;;;;;;;;;;;20.60;35.80;;;;;;477613;249;2024;-46
2021/12/06 09:34:28;;;;;;;;;;;20.50;35.70;;;;;;477610;249;1269;-46
2021/12/06 09:36:29;;;;;;;;;;;20.50;35.80;;;;;;477734;249;1092;-46
2021/12/06 09:38:36;;;;;;;;;;;20.50;35.80;;;;;;477729;249;1245;-46
2021/12/06 09:40:34;;;;;;;;;;;20.50;35.70;;;;;;477525;248;1344;-46
2021/12/06 09:42:37;;;;;;;;;;;20.60;35.80;;;;;;477696;249;1213;-46
2021/12/06 09:44:37;;;;;;;;;;;20.50;35.70;;;;;;477606;249;2504;-46
2021/12/06 09:46:38;;;;;;;;;;;20.50;35.70;;;;;;477743;249;2206;-46
2021/12/06 09:48:39;;;;;;;;;;;20.50;35.70;;;;;;477641;249;1419;-46
2021/12/06 09:50:41;;;;;;;;;;;20.50;35.80;;;;;;477805;249;1144;-46
2021/12/06 09:52:42;;;;;;;;;;;20.60;35.80;;;;;;477544;249;1406;-46
2021/12/06 09:54:44;;;;;;;;;;;20.50;35.70;;;;;;477724;248;1122;-45
2021/12/06 09:56:45;;;;;;;;;;;20.50;35.70;;;;;;477371;249;1209;-45
2021/12/06 09:58:46;;;;;;;;;;;20.50;35.80;;;;;;477568;248;1160;-46
2021/12/06 10:00:48;;;;;;;;;;;20.50;35.70;;;;;;477556;248;1238;-45
2021/12/06 10:02:49;;;;;;;;;;;20.50;35.70;;;;;;477656;249;1225;-46
2021/12/06 10:04:53;;;;;;;;;;;20.50;35.70;;;;;;477764;249;1085;-46
2021/12/06 10:06:51;;;;;;;;;;;20.50;35.70;;;;;;477377;249;2282;-46
2021/12/06 10:08:53;;;;;;;;;;;20.50;35.70;;;;;;477571;249;1177;-46
2021/12/06 10:10:54;;;;;;;;;;;20.40;35.70;;;;;;477671;249;1187;-45
2021/12/06 10:12:55;;;;;;;;;;;20.50;35.70;;;;;;477681;249;1120;-45
2021/12/06 10:15:00;;;;;;;;;;;20.50;35.70;;;;;;477604;249;1359;-46
2021/12/06 10:16:58;;;;;;;;;;;20.50;35.70;;;;;;477323;249;2162;-45
2021/12/06 10:19:00;;;;;;;;;;;20.50;35.70;;;;;;477551;248;1234;-46
2021/12/06 10:21:01;;;;;;;;;;;20.50;35.70;;;;;;477559;248;1248;-45
2021/12/06 10:23:02;;;;;;;;;;;20.50;35.70;;;;;;477604;249;1356;-46
2021/12/06 10:25:04;;;;;;;;;;;20.50;35.70;;;;;;477723;249;1099;-46
2021/12/06 10:27:05;;;;;;;;;;;20.50;35.70;;;;;;477602;248;2123;-46
2021/12/06 10:29:06;;;;;;;;;;;20.50;35.60;;;;;;477724;248;1240;-46
2021/12/06 10:31:08;;;;;;;;;;;20.40;35.60;;;;;;477680;249;1510;-46
2021/12/06 10:33:09;;;;;;;;;;;20.50;35.60;;;;;;477485;249;1333;-46
2021/12/06 10:35:10;;;;;;;;;;;20.40;35.60;;;;;;477503;248;1216;-46
2021/12/06 10:37:12;;;;;;;;;;;20.50;35.60;;;;;;477394;248;1331;-46
2021/12/06 10:39:13;;;;;;;;;;;20.40;35.60;;;;;;477448;249;1316;-46
2021/12/06 10:41:15;;;;;;;;;;;20.50;35.70;;;;;;477527;249;1188;-46
2021/12/06 10:43:16;;;;;;;;;;;20.50;35.60;;;;;;477817;248;1163;-46
2021/12/06 10:45:17;;;;;;;;;;;20.50;35.60;;;;;;477671;249;1256;-46
2021/12/06 10:47:18;;;;;;;;;;;20.50;35.60;;;;;;477603;249;2195;-46
2021/12/06 10:49:20;;;;;;;;;;;20.50;35.60;;;;;;477485;249;1168;-46
2021/12/06 10:51:21;;;;;;;;;;;20.40;35.60;;;;;;477415;249;1185;-46
2021/12/06 10:53:22;;;;;;;;;;;20.50;35.60;;;;;;477364;249;1068;-46
2021/12/06 10:55:24;;;;;;;;;;;20.40;35.50;;;;;;477448;249;1085;-46
2021/12/06 10:57:25;;;;;;;;;;;20.50;35.60;;;;;;477201;249;1284;-46
2021/12/06 10:59:26;;;;;;;;;;;20.40;35.50;;;;;;477321;249;1268;-45
2021/12/06 11:01:28;;;;;;;;;;;20.40;35.50;;;;;;477480;249;1476;-46
2021/12/06 11:03:29;;;;;;;;;;;20.50;35.60;;;;;;477559;249;1169;-46
2021/12/06 11:05:31;;;;;;;;;;;20.40;35.50;;;;;;477468;249;1122;-45
2021/12/06 11:07:32;;;;;;;;;;;20.40;35.50;;;;;;477416;248;2190;-45
2021/12/06 11:09:33;;;;;;;;;;;20.40;35.50;;;;;;477467;249;1097;-46
2021/12/06 11:11:35;;;;;;;;;;;20.40;35.60;;;;;;477611;249;1259;-45
2021/12/06 11:13:36;;;;;;;;;;;20.40;35.50;;;;;;477633;249;1075;-45
2021/12/06 11:15:37;;;;;;;;;;;20.40;35.60;;;;;;477440;249;1319;-45
2021/12/06 11:17:39;;;;;;;;;;;20.40;35.60;;;;;;477461;249;1047;-46
2021/12/06 11:19:40;;;;;;;;;;;20.40;35.60;;;;;;477557;249;1255;-45
2021/12/06 11:21:42;;;;;;;;;;;20.40;35.60;;;;;;477650;248;1128;-45
2021/12/06 11:23:43;;;;;;;;;;;20.40;35.60;;;;;;477642;249;1086;-46
2021/12/06 11:25:45;;;;;;;;;;;20.40;35.50;;;;;;477591;249;1261;-46
2021/12/06 11:27:48;;;;;;;;;;;20.30;35.50;;;;;;477617;249;2207;-45
2021/12/06 11:29:47;;;;;;;;;;;20.40;35.60;;;;;;477589;249;2237;-46
2021/12/06 11:31:49;;;;;;;;;;;20.40;35.60;;;;;;477541;244;1161;-46
2021/12/06 11:33:50;;;;;;;;;;;20.40;35.50;;;;;;477810;249;1265;-46
2021/12/06 11:35:52;;;;;;;;;;;20.40;35.50;;;;;;477532;249;1331;-45
2021/12/06 11:37:53;;;;;;;;;;;20.40;35.50;;;;;;477448;249;1236;-46
2021/12/06 11:39:54;;;;;;;;;;;20.30;35.50;;;;;;477457;249;1289;-46
2021/12/06 11:41:56;;;;;;;;;;;20.40;35.50;;;;;;477621;249;1319;-46
2021/12/06 11:43:57;;;;;;;;;;;20.40;35.60;;;;;;477771;249;1176;-46
2021/12/06 11:45:59;;;;;;;;;;;20.40;35.50;;;;;;477591;249;2216;-46
2021/12/06 11:48:00;;;;;;;;;;;20.30;35.50;;;;;;477737;248;2207;-46
2021/12/06 11:50:01;;;;;;;;;;;20.40;35.50;;;;;;477687;249;1101;-46
2021/12/06 11:52:03;;;;;;;;;;;20.40;35.50;;;;;;477558;249;1281;-45
2021/12/06 11:54:04;;;;;;;;;;;20.40;35.50;;;;;;477550;249;1055;-46
2021/12/06 11:56:07;;;;;;;;;;;20.40;35.50;;;;;;477334;249;1453;-45
2021/12/06 11:58:07;;;;;;;;;;;20.40;35.40;;;;;;478293;248;2440;-46
2021/12/06 12:00:08;;;;;;;;;;;20.40;35.50;;;;;;477852;249;1020;-46
2021/12/06 12:02:10;;;;;;;;;;;20.40;35.50;;;;;;477444;249;1224;-46
2021/12/06 12:04:11;;;;;;;;;;;20.30;35.50;;;;;;477574;248;1306;-45
2021/12/06 12:06:12;;;;;;;;;;;20.40;35.50;;;;;;477516;249;1340;-46